Promised Land, New York
Current Conditions -  °F | °C
As of 3:56 PM on Saturday 25 Oct 2014 (Local Time) from KGON Reporting Station
Clear Clear  
Wind Chill: 60°   Ceiling: Unl
Heat Index: 60°   Visibility: 10mi
Dew Point: 47°   Wind: 13mph
Humidity: 62%   Direction: 240°WSW
Pressure: 29.66"   Gusts: NA
Location:  40.9764°N, 72.1316°W
Report Text: KGON 251956Z 24011KT 10SM CLR 16/08 A2966 RMK AO2 SLP042 T01560083
Loading
Personal Weather Stations






























Interactive Weather Map
Tropical Storm Tracking
New forecast layout! Learn more

10-Day Weather Forecast

Advertisements
Track Severe Weather on mobile